Aérodrome :
LOGIN :

S'inscrire | Disclaimer

   EN    FR    IT 

 










Légende :    VFR   VFR Marginal   IFR   IFR Intensif   IFR Très Intensif
Visi : 
Plafond : 
>= 8 km
>= 3000ft
5 à 8 km
1000 à 3000 ft
1500m à 5 km
500 à 1000 ft
800 à 1500m
200 à 500 ft
< 800m
< 200 ft
Symboles :   Orages  Brouillard  Fortes neiges  Fortes précipitations  Vent > 20 kt
SIGMETs :   Divers  Orages  Givrage  Turbulence  Onde Orograph.  Cendres Volcan.







- Altitude de l'aérodrome : 138 ft
- Code IATA : BIO


LEBB - Bilbao

DERNIER METAR :
  • 170830Z 12004KT 9999 FEW014 15/13 Q1018 NOSIG

METARs EXPIRÉS :
  • 170800Z 11004KT 070V150 9999 FEW014 13/12 Q1018 NOSIG
  • 170730Z 11004KT 080V160 9999 FEW014 13/12 Q1018 NOSIG
  • 170700Z VRB02KT 9999 FEW014 11/11 Q1018 NOSIG
  • 170630Z 12003KT 070V160 CAVOK 11/11 Q1018 NOSIG

TAF TAF LEBB
Valide du 17 à 06h jusqu'au 18 à 06h UTC


170500Z 1706/1806 VRB05KT 9999 SCT015 TX22/1712Z TN14/1806Z
PROB40
TEMPO 1706/1708 3000 BR BKN010
PROB30
TEMPO 1706/1707 0600 FG BKN001
PROB30
TEMPO 1713/1717 02010KT
PROB40
TEMPO 1721/1806 3000 RA BKN010
Pas de NOTAMs connus pour ce terrain.



MET'MAP, la Météo Aéronautique d'un coup d'oeil ! - Copyright ORBIFLY Décembre 2007 - Disclaimer

ORBIFLY MET'MAP TEAM :

Programmation & Développement : Alexandra Zaïnal
Conception & Développement : Baudouin d'Aumeries
Co-Programmation & Développement : Marc-Olivier Méhu
Soutien technique & logistique : Manuel Goepfert

Contact : metmap@orbifly.com




SOURCES & CREDITS :

   NOAA